Temp: 13.6°C   Hum: 82%
  Wind: 2.0mph   Dir: WNW (286°)
  Rain: 0.0mm Rate: 0.0mm/hr
  Pressure: 1007.7mb

Historic data

Bath Spa Weather Station Historical Data
Daily Summary for January 23, 2022 Units:  English    Metric   Both
Daily Weekly Monthly Yearly Custom
  High: Low: Average:
Temperature: 40.1 °F 37.8 °F 39 °F
Dew Point: 36.7 °F 33.6 °F 35 °F
Humidity: 88% 84% 85%
Wind Speed: 4.5mph 0mph 1.3mph
Wind Gust: 10mph - -
Wind- - SW
Pressure: 30.65 in 30.52 in -
Precipitation: 0.00 in    
Historical Graphs
 
 
Tabular Data for January 23, 2022
Time Temperature Dew Point Pressure Wind Wind Speed Wind Gust Humidity Rainfall Rate (Hourly) solar
00:09 39.7 °F 36.5 °F 30.65 in Calm     88% 0.00 in 0 W/m2
00:14 39.7 °F 36.5 °F 30.65 in Calm     88% 0.00 in 0 W/m2
00:19 39.7 °F 36.5 °F 30.65 in Calm     88% 0.00 in 0 W/m2
00:24 39.7 °F 36.5 °F 30.65 in Calm     88% 0.00 in 0 W/m2
00:29 39.7 °F 36.5 °F 30.65 in Calm     88% 0.00 in 0 W/m2
00:34 39.7 °F 36.5 °F 30.65 in Calm     88% 0.00 in 0 W/m2
00:39 39.7 °F 36.5 °F 30.65 in Calm     88% 0.00 in 0 W/m2
00:44 39.7 °F 36.5 °F 30.65 in Calm     88% 0.00 in 0 W/m2
00:49 39.7 °F 36.5 °F 30.65 in Calm     88% 0.00 in 0 W/m2
00:54 39.7 °F 36.5 °F 30.65 in Calm     88% 0.00 in 0 W/m2
00:59 39.9 °F 36.7 °F 30.64 in Calm     88% 0.00 in 0 W/m2
01:04 39.7 °F 36.5 °F 30.64 in Calm     88% 0.00 in 0 W/m2
01:09 39.7 °F 36.5 °F 30.64 in Calm     88% 0.00 in 0 W/m2
01:14 39.7 °F 36.5 °F 30.64 in WNW 0.4 mph 2 mph 88% 0.00 in 0 W/m2
01:19 39.6 °F 36.4 °F 30.64 in Calm   2 mph 88% 0.00 in 0 W/m2
01:24 39.7 °F 36.3 °F 30.64 in Calm     87.4% 0.00 in 0 W/m2
01:29 39.9 °F 36.3 °F 30.64 in Calm     87% 0.00 in 0 W/m2
01:34 40 °F 36.4 °F 30.64 in Calm     87% 0.00 in 0 W/m2
01:39 40 °F 36.4 °F 30.64 in Calm     87% 0.00 in 0 W/m2
01:44 40.1 °F 36.5 °F 30.64 in Calm     87% 0.00 in 0 W/m2
01:49 40 °F 36.4 °F 30.64 in Calm     86.8% 0.00 in 0 W/m2
01:54 39.9 °F 36.3 °F 30.64 in Calm     87% 0.00 in 0 W/m2
01:59 39.8 °F 36.2 °F 30.63 in Calm     87% 0.00 in 0 W/m2
02:04 39.9 °F 36.3 °F 30.63 in Calm     86.8% 0.00 in 0 W/m2
02:09 39.9 °F 36.1 °F 30.63 in Calm     86.2% 0.00 in 0 W/m2
02:14 39.9 °F 36.1 °F 30.63 in Calm     86.2% 0.00 in 0 W/m2
02:19 39.7 °F 36 °F 30.63 in Calm     86% 0.00 in 0 W/m2
02:24 39.7 °F 36.1 °F 30.63 in Calm     87% 0.00 in 0 W/m2
02:29 39.7 °F 36.1 °F 30.63 in Calm     87% 0.00 in 0 W/m2
02:34 39.7 °F 36.1 °F 30.63 in Calm     87% 0.00 in 0 W/m2
02:39 39.7 °F 36.1 °F 30.63 in Calm     87% 0.00 in 0 W/m2
02:44 39.8 °F 36.2 °F 30.63 in Calm     87% 0.00 in 0 W/m2
02:49 39.7 °F 36.1 °F 30.63 in Calm     87% 0.00 in 0 W/m2
02:54 39.7 °F 36.1 °F 30.63 in Calm     87% 0.00 in 0 W/m2
02:59 39.7 °F 36.1 °F 30.63 in WNW 0.2 mph 1 mph 87% 0.00 in 0 W/m2
03:04 39.6 °F 36 °F 30.63 in Calm   2 mph 86.8% 0.00 in 0 W/m2
03:09 39.6 °F 35.8 °F 30.62 in Calm     86% 0.00 in 0 W/m2
03:14 39.6 °F 35.8 °F 30.62 in Calm     86% 0.00 in 0 W/m2
03:19 39.7 °F 36 °F 30.62 in Calm     86% 0.00 in 0 W/m2
03:24 39.7 °F 36 °F 30.62 in Calm     86% 0.00 in 0 W/m2
03:29 39.7 °F 36 °F 30.62 in Calm   1 mph 86% 0.00 in 0 W/m2
03:34 39.7 °F 36 °F 30.62 in Calm   1 mph 86% 0.00 in 0 W/m2
03:39 39.7 °F 36 °F 30.62 in Calm   1 mph 86% 0.00 in 0 W/m2
03:44 39.7 °F 36 °F 30.62 in Calm   2 mph 86% 0.00 in 0 W/m2
03:49 39.7 °F 36 °F 30.62 in Calm     86% 0.00 in 0 W/m2
03:54 39.7 °F 36 °F 30.62 in Calm     86% 0.00 in 0 W/m2
03:59 39.7 °F 36 °F 30.62 in Calm   1 mph 86% 0.00 in 0 W/m2
04:04 39.7 °F 36 °F 30.62 in Calm     86% 0.00 in 0 W/m2
04:09 39.7 °F 35.9 °F 30.62 in Calm     85.8% 0.00 in 0 W/m2
04:14 39.7 °F 35.6 °F 30.62 in Calm     85% 0.00 in 0 W/m2
04:19 39.6 °F 35.5 °F 30.62 in Calm   2 mph 85% 0.00 in 0 W/m2
04:24 39.6 °F 35.4 °F 30.62 in Calm   2 mph 85% 0.00 in 0 W/m2
04:29 39.6 °F 35.4 °F 30.62 in Calm     85% 0.00 in 0 W/m2
04:34 39.5 °F 35.3 °F 30.62 in Calm     85% 0.00 in 0 W/m2
04:39 39.4 °F 35.2 °F 30.62 in Calm   2 mph 85% 0.00 in 0 W/m2
04:44 39.4 °F 35.2 °F 30.62 in WNW 0.2 mph 2 mph 85% 0.00 in 0 W/m2
04:49 39.4 °F 35.2 °F 30.62 in WNW 0.8 mph 2 mph 85% 0.00 in 0 W/m2
04:54 39.4 °F 35.2 °F 30.62 in WNW 0.6 mph 3 mph 85% 0.00 in 0 W/m2
04:59 39.3 °F 35.1 °F 30.61 in WNW 1.5 mph 6 mph 85% 0.00 in 0 W/m2
05:04 39.2 °F 35.1 °F 30.61 in WNW 1.2 mph 5 mph 85% 0.00 in 0 W/m2
05:09 39.2 °F 35.1 °F 30.61 in WNW 2.6 mph 5 mph 85% 0.00 in 0 W/m2
05:14 39.2 °F 35.1 °F 30.61 in West 2.4 mph 5 mph 85% 0.00 in 0 W/m2
05:19 39.3 °F 34.9 °F 30.61 in Calm   3 mph 84.2% 0.00 in 0 W/m2
05:24 39.3 °F 34.8 °F 30.61 in West 0.4 mph 2 mph 84% 0.00 in 0 W/m2
05:29 39.2 °F 34.7 °F 30.61 in Calm   1 mph 84% 0.00 in 0 W/m2
05:34 39.2 °F 34.7 °F 30.61 in West 0.6 mph 2 mph 84% 0.00 in 0 W/m2
05:39 39.1 °F 34.6 °F 30.61 in West 0.6 mph 2 mph 84% 0.00 in 0 W/m2
05:44 39 °F 34.5 °F 30.61 in West 2.1 mph 6 mph 84% 0.00 in 0 W/m2
05:49 39 °F 34.5 °F 30.61 in West 1.4 mph 5 mph 84% 0.00 in 0 W/m2
05:54 39 °F 34.5 °F 30.60 in West 1.7 mph 5 mph 84% 0.00 in 0 W/m2
05:59 39 °F 34.5 °F 30.60 in West 0.9 mph 3 mph 84% 0.00 in 0 W/m2
06:04 39 °F 34.5 °F 30.60 in West 2 mph 4 mph 84% 0.00 in 0 W/m2
06:09 39 °F 34.5 °F 30.60 in West 2 mph 4 mph 84% 0.00 in 0 W/m2
06:14 39 °F 34.5 °F 30.60 in West 2.8 mph 6 mph 84% 0.00 in 0 W/m2
06:19 38.8 °F 34.3 °F 30.60 in West 2.4 mph 4 mph 84% 0.00 in 0 W/m2
06:24 38.8 °F 34.3 °F 30.60 in West 2 mph 4 mph 84% 0.00 in 0 W/m2
06:29 38.8 °F 34.3 °F 30.60 in West 0.4 mph 3 mph 84% 0.00 in 0 W/m2
06:34 38.8 °F 34.3 °F 30.60 in West 1.2 mph 3 mph 84% 0.00 in 0 W/m2
06:39 38.8 °F 34.3 °F 30.60 in West 1.1 mph 4 mph 84% 0.00 in 0 W/m2
06:44 38.7 °F 34.2 °F 30.60 in West 1.6 mph 3 mph 84% 0.00 in 0 W/m2
06:49 38.7 °F 34.2 °F 30.60 in West 0.2 mph 2 mph 84% 0.00 in 0 W/m2
06:54 38.7 °F 34.2 °F 30.60 in West 1 mph 3 mph 84% 0.00 in 0 W/m2
06:59 38.7 °F 34.2 °F 30.60 in West 0.2 mph 2 mph 84% 0.00 in 0 W/m2
07:04 38.7 °F 34.3 °F 30.61 in West 1 mph 4 mph 84.2% 0.00 in 0 W/m2
07:09 38.7 °F 34.5 °F 30.61 in West 2.4 mph 4 mph 85% 0.00 in 0 W/m2
07:14 38.6 °F 34.4 °F 30.61 in West 3.4 mph 7 mph 85% 0.00 in 0 W/m2
07:19 38.5 °F 34.2 °F 30.61 in West 2.4 mph 7 mph 84.4% 0.00 in 0 W/m2
07:24 38.4 °F 34.1 °F 30.61 in West 4.5 mph 7 mph 84% 0.00 in 0 W/m2
07:29 38.3 °F 34 °F 30.61 in West 0.8 mph 5 mph 84% 0.00 in 0 W/m2
07:34 38.4 °F 34.1 °F 30.62 in West 3.2 mph 6 mph 84% 0.00 in 0 W/m2
07:39 38.3 °F 34 °F 30.62 in West 2 mph 6 mph 84% 0.00 in 0 W/m2
07:44 38.3 °F 34 °F 30.61 in West 0.2 mph 3 mph 84% 0.00 in 0 W/m2
07:49 38.3 °F 34 °F 30.61 in West 0.2 mph 2 mph 84.2% 0.00 in 0 W/m2
07:54 38.3 °F 34.2 °F 30.61 in West 2.1 mph 4 mph 85% 0.00 in 0 W/m2
07:59 38.2 °F 34.1 °F 30.61 in West 2.1 mph 4 mph 85% 0.00 in 0 W/m2
08:03 38.2 °F 34.1 °F 30.61 in West 1 mph 3 mph 85% 0.00 in 0 W/m2
08:09 38.1 °F 34 °F 30.61 in West 1.7 mph 4 mph 85% 0.00 in 0 W/m2
08:14 38.3 °F 34.2 °F 30.62 in West 1.3 mph 3 mph 85% 0.00 in 0 W/m2
08:19 38.3 °F 34.2 °F 30.62 in SSW 2.4 mph 7 mph 85% 0.00 in 5 W/m2
08:24 38.1 °F 34 °F 30.62 in SSW 0.4 mph 3 mph 85% 0.00 in 5 W/m2
08:29 38.1 °F 34 °F 30.62 in SSW 0.8 mph 3 mph 85% 0.00 in 7 W/m2
08:34 38.1 °F 34 °F 30.62 in SSW 1.5 mph 5 mph 85% 0.00 in 9 W/m2
08:39 38.1 °F 34 °F 30.62 in SSW 1.6 mph 4 mph 85% 0.00 in 9 W/m2
08:44 38.1 °F 34 °F 30.62 in SSW 2.4 mph 5 mph 85% 0.00 in 11 W/m2
08:49 38.1 °F 34 °F 30.62 in SSW 4.1 mph 6 mph 85% 0.00 in 14 W/m2
08:54 38.1 °F 34 °F 30.62 in SSW 2.8 mph 5 mph 85% 0.00 in 16 W/m2
08:59 38.1 °F 34 °F 30.62 in SSW 1.2 mph 4 mph 85% 0.00 in 18 W/m2
09:04 38.2 °F 34.1 °F 30.62 in SSW 0.2 mph 2 mph 85% 0.00 in 16 W/m2
09:09 38.3 °F 34.2 °F 30.62 in SSW 0.9 mph 4 mph 85% 0.00 in 19 W/m2
09:14 38.2 °F 34.1 °F 30.62 in SSW 2.9 mph 6 mph 85% 0.00 in 21 W/m2
09:19 38.1 °F 34 °F 30.62 in SSW 3.1 mph 6 mph 85% 0.00 in 21 W/m2
09:24 38.1 °F 34 °F 30.62 in SSW 3.2 mph 6 mph 85% 0.00 in 23 W/m2
09:29 38.1 °F 34 °F 30.62 in SSW 1.7 mph 5 mph 85% 0.00 in 25 W/m2
09:34 38.1 °F 34 °F 30.62 in SSW 2.7 mph 6 mph 85% 0.00 in 25 W/m2
09:39 38.1 °F 34 °F 30.62 in SSW 3.8 mph 7 mph 85% 0.00 in 28 W/m2
09:44 38.1 °F 34 °F 30.62 in SSW 2.4 mph 4 mph 85% 0.00 in 28 W/m2
09:49 38.1 °F 34 °F 30.62 in SSW 2 mph 5 mph 85% 0.00 in 30 W/m2
09:54 38.1 °F 34 °F 30.62 in SSW 3.6 mph 6 mph 85% 0.00 in 33 W/m2
09:59 37.9 °F 33.8 °F 30.62 in SSW 2.9 mph 8 mph 85% 0.00 in 35 W/m2
10:04 38 °F 33.8 °F 30.62 in SSW 3.2 mph 6 mph 85% 0.00 in 37 W/m2
10:09 38.1 °F 34 °F 30.62 in SSW 3.3 mph 5 mph 85% 0.00 in 37 W/m2
10:14 38.1 °F 34 °F 30.62 in SSW 2 mph 5 mph 85% 0.00 in 42 W/m2
10:19 38.1 °F 34 °F 30.62 in SSW 3.4 mph 5 mph 85% 0.00 in 44 W/m2
10:24 37.9 °F 33.8 °F 30.62 in SSW 4 mph 8 mph 85% 0.00 in 47 W/m2
10:29 37.9 °F 33.8 °F 30.62 in SSW 3.2 mph 7 mph 85% 0.00 in 44 W/m2
10:34 37.9 °F 33.8 °F 30.62 in SSW 3.3 mph 8 mph 85% 0.00 in 44 W/m2
10:39 37.8 °F 33.6 °F 30.62 in SSW 2.8 mph 6 mph 85% 0.00 in 47 W/m2
10:44 37.9 °F 33.7 °F 30.62 in SSW 2.2 mph 4 mph 85% 0.00 in 49 W/m2
10:49 37.8 °F 33.6 °F 30.62 in SSW 2.9 mph 10 mph 85% 0.00 in 49 W/m2
10:54 37.8 °F 33.6 °F 30.62 in SSW 3.2 mph 7 mph 85% 0.00 in 47 W/m2
10:59 37.8 °F 33.7 °F 30.61 in SSW 2.5 mph 7 mph 85% 0.00 in 53 W/m2
11:04 37.9 °F 33.8 °F 30.61 in SSW 2.8 mph 6 mph 85% 0.00 in 60 W/m2
11:09 37.9 °F 33.8 °F 30.61 in SSW 4.5 mph 7 mph 85% 0.00 in 60 W/m2
11:14 37.9 °F 33.8 °F 30.61 in SSW 2.5 mph 5 mph 85% 0.00 in 60 W/m2
11:19 38 °F 33.9 °F 30.61 in SSW 2.4 mph 6 mph 85% 0.00 in 60 W/m2
11:24 38.1 °F 34 °F 30.61 in SSW 4.5 mph 9 mph 85% 0.00 in 63 W/m2
11:29 37.9 °F 33.8 °F 30.61 in SSW 3.6 mph 6 mph 85% 0.00 in 65 W/m2
11:34 37.9 °F 33.8 °F 30.61 in SSW 3.7 mph 7 mph 85% 0.00 in 63 W/m2
11:39 38 °F 33.9 °F 30.61 in SSW 2.5 mph 6 mph 85% 0.00 in 60 W/m2
11:44 38.1 °F 34 °F 30.60 in SSW 2.7 mph 5 mph 85% 0.00 in 56 W/m2
11:49 38.1 °F 34 °F 30.60 in SSW 2 mph 5 mph 85% 0.00 in 62 W/m2
11:54 38.1 °F 34 °F 30.60 in SSW 1.5 mph 4 mph 85% 0.00 in 60 W/m2
11:59 38.1 °F 34 °F 30.60 in SSW 1.7 mph 4 mph 85% 0.00 in 58 W/m2
12:04 38.3 °F 34.2 °F 30.60 in SSW 2.4 mph 5 mph 85% 0.00 in 58 W/m2
12:09 38.1 °F 34 °F 30.60 in SSW 2.8 mph 5 mph 85% 0.00 in 60 W/m2
12:14 38.1 °F 34 °F 30.60 in SSW 1.4 mph 5 mph 85% 0.00 in 58 W/m2
12:19 38.3 °F 34.2 °F 30.60 in SSW 2.4 mph 5 mph 85% 0.00 in 62 W/m2
12:24 38.3 °F 34.2 °F 30.60 in SSW 2.1 mph 5 mph 85% 0.00 in 60 W/m2
12:29 38.5 °F 34.3 °F 30.60 in SSW 1.5 mph 5 mph 85% 0.00 in 60 W/m2
12:34 38.5 °F 34.3 °F 30.60 in SSW 1.2 mph 4 mph 85% 0.00 in 62 W/m2
12:39 38.5 °F 34.3 °F 30.59 in SSW 2.9 mph 7 mph 85% 0.00 in 60 W/m2
12:44 38.5 °F 34.3 °F 30.59 in SSW 4.1 mph 7 mph 85% 0.00 in 62 W/m2
12:49 38.4 °F 34.2 °F 30.59 in SSW 2.8 mph 6 mph 85% 0.00 in 58 W/m2
12:54 38.5 °F 34.3 °F 30.59 in SSW 1.3 mph 6 mph 85% 0.00 in 63 W/m2
12:59 38.5 °F 34.3 °F 30.58 in SSW 3.5 mph 7 mph 84.8% 0.00 in 63 W/m2
13:04 38.1 °F 33.9 °F 30.58 in SSW 1.2 mph 5 mph 84.6% 0.00 in 62 W/m2
13:09 38.2 °F 34.1 °F 30.58 in SSW 1.6 mph 3 mph 85% 0.00 in 60 W/m2
13:14 38.4 °F 34.3 °F 30.58 in SSW 1.1 mph 4 mph 85% 0.00 in 60 W/m2
13:19 38.5 °F 34.3 °F 30.58 in SSW 2.6 mph 5 mph 85% 0.00 in 60 W/m2
13:24 38.5 °F 34.3 °F 30.58 in SSW 2.4 mph 5 mph 85% 0.00 in 60 W/m2
13:29 38.7 °F 34.5 °F 30.58 in SSW 2.1 mph 5 mph 85% 0.00 in 62 W/m2
13:34 38.7 °F 34.5 °F 30.57 in SSW 2.8 mph 5 mph 85% 0.00 in 56 W/m2
13:39 38.5 °F 34.2 °F 30.57 in SSW 2.2 mph 5 mph 84.4% 0.00 in 54 W/m2
13:44 38.5 °F 34.3 °F 30.57 in SSW 2.7 mph 5 mph 85% 0.00 in 49 W/m2
13:49 38.6 °F 34.4 °F 30.57 in SSW 3.2 mph 7 mph 85% 0.00 in 51 W/m2
13:54 38.7 °F 34.5 °F 30.57 in SSW 3.3 mph 7 mph 85% 0.00 in 47 W/m2
13:59 38.6 °F 34.4 °F 30.56 in SSW 1.3 mph 6 mph 84.8% 0.00 in 46 W/m2
14:04 38.7 °F 34.5 °F 30.56 in SSW 1.2 mph 3 mph 85% 0.00 in 44 W/m2
14:09 38.8 °F 34.6 °F 30.56 in SSW 2 mph 4 mph 85% 0.00 in 42 W/m2
14:14 38.8 °F 34.7 °F 30.56 in SSW 2.7 mph 6 mph 85% 0.00 in 44 W/m2
14:19 38.7 °F 34.3 °F 30.56 in SSW 3.8 mph 7 mph 84.2% 0.00 in 42 W/m2
14:24 38.7 °F 34.2 °F 30.56 in SSW 3 mph 5 mph 84% 0.00 in 40 W/m2
14:29 38.8 °F 34.4 °F 30.55 in SSW 1.1 mph 4 mph 84.4% 0.00 in 37 W/m2
14:34 38.8 °F 34.7 °F 30.55 in SSW 2 mph 4 mph 85% 0.00 in 35 W/m2
14:39 38.8 °F 34.6 °F 30.55 in SSW 2.6 mph 5 mph 84.8% 0.00 in 33 W/m2
14:44 38.8 °F 34.7 °F 30.55 in SSW 3.5 mph 6 mph 85% 0.00 in 35 W/m2
14:49 38.8 °F 34.7 °F 30.55 in SSW 2.2 mph 4 mph 85% 0.00 in 37 W/m2
14:54 38.8 °F 34.7 °F 30.55 in SSW 1.3 mph 4 mph 85% 0.00 in 35 W/m2
14:59 38.8 °F 34.6 °F 30.55 in SSW 0.9 mph 3 mph 84.8% 0.00 in 32 W/m2
15:04 39 °F 34.9 °F 30.55 in SSW 0.5 mph 3 mph 85% 0.00 in 28 W/m2
15:09 39 °F 34.6 °F 30.55 in SSW 1 mph 5 mph 84.2% 0.00 in 28 W/m2
15:14 38.9 °F 34.4 °F 30.55 in SSW 3 mph 6 mph 84% 0.00 in 26 W/m2
15:19 38.8 °F 34.5 °F 30.54 in SSW 3.6 mph 6 mph 84.4% 0.00 in 26 W/m2
15:23 38.8 °F 34.7 °F 30.54 in SSW 2.7 mph 5 mph 85% 0.00 in 26 W/m2
15:29 38.8 °F 34.7 °F 30.54 in SSW 2.2 mph 5 mph 85% 0.00 in 25 W/m2
15:34 38.8 °F 34.7 °F 30.54 in SSW 0.9 mph 4 mph 85% 0.00 in 23 W/m2
15:39 39 °F 34.9 °F 30.54 in SSW 0.9 mph 5 mph 85% 0.00 in 21 W/m2
15:44 39 °F 34.9 °F 30.54 in SSW 1.8 mph 5 mph 85% 0.00 in 19 W/m2
15:49 39 °F 34.8 °F 30.54 in SSW 3.2 mph 6 mph 84.8% 0.00 in 18 W/m2
15:54 38.8 °F 34.5 °F 30.54 in SSW 2.8 mph 6 mph 84.6% 0.00 in 16 W/m2
15:59 38.8 °F 34.3 °F 30.54 in SSW 0.5 mph 6 mph 84% 0.00 in 12 W/m2
16:04 38.8 °F 34.5 °F 30.54 in SSW 0.4 mph 3 mph 84.6% 0.00 in 11 W/m2
16:09 38.8 °F 34.3 °F 30.54 in SSW 3.1 mph 6 mph 84% 0.00 in 9 W/m2
16:14 39 °F 34.5 °F 30.54 in SSW 1.3 mph 5 mph 84.2% 0.00 in 7 W/m2
16:19 39 °F 34.7 °F 30.54 in SSW 2.8 mph 4 mph 84.6% 0.00 in 5 W/m2
16:24 39 °F 34.9 °F 30.54 in SSW 1.8 mph 4 mph 85% 0.00 in 5 W/m2
16:29 39 °F 34.9 °F 30.54 in SSW 1.9 mph 5 mph 85% 0.00 in 0 W/m2
16:34 39 °F 34.9 °F 30.54 in SSW 2 mph 4 mph 85% 0.00 in 0 W/m2
16:39 39 °F 34.9 °F 30.54 in SSW 2.7 mph 5 mph 85% 0.00 in 0 W/m2
16:44 39 °F 34.9 °F 30.54 in SSW 2.1 mph 5 mph 85% 0.00 in 0 W/m2
16:49 39 °F 34.9 °F 30.54 in SSW 1.2 mph 4 mph 85% 0.00 in 0 W/m2
16:54 39.2 °F 35.1 °F 30.54 in SSW 1.1 mph 2 mph 85% 0.00 in 0 W/m2
16:59 39.2 °F 35.1 °F 30.54 in SSW 0.8 mph 3 mph 85% 0.00 in 0 W/m2
17:04 39.1 °F 35 °F 30.54 in SSW 2.9 mph 7 mph 85% 0.00 in 0 W/m2
17:09 39 °F 34.9 °F 30.54 in SSW 1.2 mph 3 mph 85% 0.00 in 0 W/m2
17:14 39 °F 34.9 °F 30.54 in SSW 1.3 mph 4 mph 85% 0.00 in 0 W/m2
17:19 39 °F 34.9 °F 30.54 in SSW 2.2 mph 5 mph 85% 0.00 in 0 W/m2
17:24 39 °F 34.9 °F 30.54 in SSW 0.5 mph 4 mph 85% 0.00 in 0 W/m2
17:29 39 °F 34.9 °F 30.54 in SSW 0.7 mph 2 mph 85% 0.00 in 0 W/m2
17:34 39 °F 34.9 °F 30.54 in SSW 0.7 mph 2 mph 85% 0.00 in 0 W/m2
17:39 39.1 °F 35 °F 30.54 in SSW 2 mph 4 mph 85% 0.00 in 0 W/m2
17:44 39 °F 34.9 °F 30.54 in SSW 0.4 mph 2 mph 85% 0.00 in 0 W/m2
17:49 39.1 °F 35 °F 30.54 in SSW 0.2 mph 2 mph 85% 0.00 in 0 W/m2
17:54 39.3 °F 35.1 °F 30.54 in SSW 0.2 mph 2 mph 85% 0.00 in 0 W/m2
17:59 39.2 °F 35.1 °F 30.54 in SSW 0.6 mph 3 mph 85% 0.00 in 0 W/m2
18:04 39.2 °F 35.1 °F 30.54 in Calm     85% 0.00 in 0 W/m2
18:09 39.4 °F 35.2 °F 30.54 in Calm     85% 0.00 in 0 W/m2
18:14 39.3 °F 35.1 °F 30.54 in Calm   1 mph 85% 0.00 in 0 W/m2
18:19 39.4 °F 35.2 °F 30.54 in Calm   1 mph 85% 0.00 in 0 W/m2
18:24 39.4 °F 35.2 °F 30.54 in Calm     85% 0.00 in 0 W/m2
18:29 39.4 °F 35.2 °F 30.54 in Calm   1 mph 85% 0.00 in 0 W/m2
18:34 39.4 °F 35.2 °F 30.54 in Calm   1 mph 85% 0.00 in 0 W/m2
18:39 39.4 °F 35.2 °F 30.54 in Calm     85% 0.00 in 0 W/m2
18:44 39.4 °F 35.2 °F 30.54 in Calm     85% 0.00 in 0 W/m2
18:48 39.4 °F 35.2 °F 30.54 in Calm     85% 0.00 in 0 W/m2
18:53 39.4 °F 35.2 °F 30.55 in Calm     85% 0.00 in 0 W/m2
18:59 39.5 °F 35.6 °F 30.54 in Calm     85.6% 0.00 in 0 W/m2
19:04 39.6 °F 35.8 °F 30.54 in Calm     86% 0.00 in 0 W/m2
19:09 39.6 °F 35.8 °F 30.54 in SSW 0.2 mph 2 mph 86% 0.00 in 0 W/m2
19:14 39.6 °F 35.8 °F 30.54 in Calm   2 mph 86% 0.00 in 0 W/m2
19:19 39.6 °F 35.8 °F 30.54 in Calm     86% 0.00 in 0 W/m2
19:24 39.6 °F 35.8 °F 30.54 in SSW 0.4 mph 2 mph 86% 0.00 in 0 W/m2
19:29 39.4 °F 35.6 °F 30.54 in SSW 1.6 mph 4 mph 86% 0.00 in 0 W/m2
19:34 39.4 °F 35.6 °F 30.54 in SSW 1.6 mph 3 mph 86% 0.00 in 0 W/m2
19:39 39.4 °F 35.6 °F 30.54 in SSW 0.6 mph 2 mph 86% 0.00 in 0 W/m2
19:44 39.6 °F 35.8 °F 30.54 in SSW 1.4 mph 3 mph 86% 0.00 in 0 W/m2
19:49 39.6 °F 35.8 °F 30.54 in SSW 0.4 mph 3 mph 86% 0.00 in 0 W/m2
19:54 39.6 °F 35.8 °F 30.54 in Calm   3 mph 86% 0.00 in 0 W/m2
19:59 39.4 °F 35.6 °F 30.54 in SSW 1 mph 2 mph 86% 0.00 in 0 W/m2
20:04 39.5 °F 35.7 °F 30.54 in SSW 1.6 mph 4 mph 86% 0.00 in 0 W/m2
20:09 39.5 °F 35.7 °F 30.54 in SSW 0.2 mph 3 mph 86% 0.00 in 0 W/m2
20:14 39.4 °F 35.6 °F 30.53 in SSW 0.6 mph 3 mph 86% 0.00 in 0 W/m2
20:19 39.5 °F 35.7 °F 30.53 in SSW 0.8 mph 3 mph 86% 0.00 in 0 W/m2
20:24 39.6 °F 35.8 °F 30.53 in Calm   1 mph 86% 0.00 in 0 W/m2
20:29 39.6 °F 35.8 °F 30.53 in Calm   1 mph 86% 0.00 in 0 W/m2
20:34 39.6 °F 35.8 °F 30.53 in Calm   1 mph 86% 0.00 in 0 W/m2
20:39 39.4 °F 35.6 °F 30.53 in Calm     86% 0.00 in 0 W/m2
20:44 39.4 °F 35.6 °F 30.53 in Calm   2 mph 86% 0.00 in 0 W/m2
20:49 39.5 °F 35.7 °F 30.53 in SSW 0.4 mph 2 mph 86% 0.00 in 0 W/m2
20:54 39.6 °F 35.8 °F 30.53 in SSW 0.6 mph 2 mph 86% 0.00 in 0 W/m2
20:59 39.6 °F 35.8 °F 30.53 in SSW 0.5 mph 2 mph 86% 0.00 in 0 W/m2
21:04 39.6 °F 35.8 °F 30.53 in SSW 1.1 mph 3 mph 86% 0.00 in 0 W/m2
21:09 39.6 °F 35.8 °F 30.53 in SSW 0.5 mph 3 mph 86% 0.00 in 0 W/m2
21:14 39.6 °F 35.8 °F 30.53 in SSW 0.2 mph 1 mph 86% 0.00 in 0 W/m2
21:19 39.6 °F 35.8 °F 30.53 in SSW 0.2 mph 2 mph 86% 0.00 in 0 W/m2
21:24 39.6 °F 35.8 °F 30.53 in SSW 1.7 mph 3 mph 86% 0.00 in 0 W/m2
21:29 39.6 °F 35.8 °F 30.53 in SSW 1.1 mph 3 mph 86% 0.00 in 0 W/m2
21:34 39.6 °F 35.8 °F 30.53 in SSW 1.2 mph 3 mph 86% 0.00 in 0 W/m2
21:39 39.6 °F 35.8 °F 30.53 in SSW 2.8 mph 4 mph 86% 0.00 in 0 W/m2
21:44 39.6 °F 35.8 °F 30.53 in SSW 0.7 mph 4 mph 86% 0.00 in 0 W/m2
21:49 39.6 °F 35.8 °F 30.53 in Calm   2 mph 86% 0.00 in 0 W/m2
21:54 39.6 °F 35.8 °F 30.53 in SSW 1.1 mph 4 mph 86% 0.00 in 0 W/m2
21:59 39.6 °F 35.9 °F 30.53 in SSW 0.4 mph 2 mph 86% 0.00 in 0 W/m2
22:04 39.6 °F 35.8 °F 30.53 in SSW 1.2 mph 3 mph 86% 0.00 in 0 W/m2
22:09 39.6 °F 35.8 °F 30.53 in SSW 1.8 mph 3 mph 86% 0.00 in 0 W/m2
22:14 39.6 °F 35.8 °F 30.53 in SSW 0.4 mph 3 mph 86% 0.00 in 0 W/m2
22:19 39.6 °F 35.9 °F 30.53 in SSW 0.4 mph 2 mph 86% 0.00 in 0 W/m2
22:24 39.7 °F 36 °F 30.53 in SSW 1.1 mph 4 mph 86% 0.00 in 0 W/m2
22:29 39.7 °F 36 °F 30.53 in SSW 0.9 mph 3 mph 86% 0.00 in 0 W/m2
22:34 39.7 °F 35.9 °F 30.53 in SSW 0.8 mph 3 mph 86% 0.00 in 0 W/m2
22:39 39.6 °F 35.8 °F 30.53 in SSW 0.2 mph 3 mph 86% 0.00 in 0 W/m2
22:44 39.6 °F 35.8 °F 30.53 in SSW 1.7 mph 4 mph 86% 0.00 in 0 W/m2
22:49 39.7 °F 36 °F 30.53 in SSW 1 mph 3 mph 86% 0.00 in 0 W/m2
22:54 39.7 °F 36 °F 30.53 in SSW 0.6 mph 4 mph 86% 0.00 in 0 W/m2
22:59 39.7 °F 36 °F 30.53 in SSW 1.6 mph 4 mph 86% 0.00 in 0 W/m2
23:04 39.7 °F 36 °F 30.53 in SSW 1.7 mph 5 mph 86% 0.00 in 0 W/m2
23:09 39.7 °F 36 °F 30.53 in SSW 1.7 mph 4 mph 86% 0.00 in 0 W/m2
23:14 39.7 °F 36 °F 30.53 in SSW 1.8 mph 4 mph 86% 0.00 in 0 W/m2
23:19 39.7 °F 36 °F 30.53 in SSW 0.8 mph 5 mph 86% 0.00 in 0 W/m2
23:24 39.8 °F 36.1 °F 30.53 in SSW 1.7 mph 5 mph 86% 0.00 in 0 W/m2
23:29 39.9 °F 36.1 °F 30.53 in SSW 1.3 mph 5 mph 86% 0.00 in 0 W/m2
23:34 39.9 °F 36.1 °F 30.53 in SSW 1.4 mph 4 mph 86% 0.00 in 0 W/m2
23:39 39.9 °F 36.1 °F 30.53 in SSW 1.7 mph 4 mph 86% 0.00 in 0 W/m2
23:44 39.9 °F 36.1 °F 30.53 in SSW 0.4 mph 3 mph 86% 0.00 in 0 W/m2
23:49 39.9 °F 36.1 °F 30.53 in SSW 1.6 mph 3 mph 86% 0.00 in 0 W/m2
23:54 39.7 °F 36 °F 30.52 in SSW 2.2 mph 4 mph 86% 0.00 in 0 W/m2
23:59 39.8 °F 36 °F 30.52 in SSW 1.7 mph 4 mph 86% 0.00 in 0 W/m2
Bath Spa Weather
Compliments of Weather Underground - 2 mb